sensor_id;sensor_type;location;lat;lon;timestamp;pressure;altitude;pressure_sealevel;temperature;humidity
22580;BME280;11456;47.030;15.396;2023-02-24T00:01:56;97104.78;;;6.33;97.04
22580;BME280;11456;47.030;15.396;2023-02-24T00:04:27;97110.69;;;6.36;97.42
22580;BME280;11456;47.030;15.396;2023-02-24T00:06:54;97105.06;;;6.20;97.41
22580;BME280;11456;47.030;15.396;2023-02-24T00:09:21;97105.59;;;6.14;98.91
22580;BME280;11456;47.030;15.396;2023-02-24T00:11:55;97109.75;;;5.88;99.46
22580;BME280;11456;47.030;15.396;2023-02-24T00:14:23;97097.59;;;5.84;100.00
22580;BME280;11456;47.030;15.396;2023-02-24T00:16:50;97098.66;;;6.02;100.00
22580;BME280;11456;47.030;15.396;2023-02-24T00:19:19;97093.47;;;6.00;99.40
22580;BME280;11456;47.030;15.396;2023-02-24T00:21:46;97096.00;;;6.02;99.15
22580;BME280;11456;47.030;15.396;2023-02-24T00:24:12;97103.59;;;5.97;98.93
22580;BME280;11456;47.030;15.396;2023-02-24T00:26:39;97095.13;;;5.92;98.63
22580;BME280;11456;47.030;15.396;2023-02-24T00:29:07;97097.28;;;6.08;98.01
22580;BME280;11456;47.030;15.396;2023-02-24T00:31:34;97096.84;;;5.93;98.76
22580;BME280;11456;47.030;15.396;2023-02-24T00:34:05;97084.97;;;5.86;98.09
22580;BME280;11456;47.030;15.396;2023-02-24T00:36:32;97085.78;;;5.77;98.15
22580;BME280;11456;47.030;15.396;2023-02-24T00:39:00;97074.28;;;5.86;97.95
22580;BME280;11456;47.030;15.396;2023-02-24T00:41:30;97079.75;;;5.84;96.87
22580;BME280;11456;47.030;15.396;2023-02-24T00:44:01;97070.84;;;5.64;96.72
22580;BME280;11456;47.030;15.396;2023-02-24T00:46:37;97069.78;;;5.37;97.33
22580;BME280;11456;47.030;15.396;2023-02-24T00:49:06;97068.22;;;5.34;97.32
22580;BME280;11456;47.030;15.396;2023-02-24T00:51:39;97073.25;;;5.28;97.62
22580;BME280;11456;47.030;15.396;2023-02-24T00:54:06;97064.50;;;5.25;98.32
22580;BME280;11456;47.030;15.396;2023-02-24T00:56:33;97062.31;;;5.31;97.86
22580;BME280;11456;47.030;15.396;2023-02-24T00:59:00;97058.06;;;5.28;97.30
22580;BME280;11456;47.030;15.396;2023-02-24T01:01:29;97050.50;;;5.33;97.74
22580;BME280;11456;47.030;15.396;2023-02-24T01:03:59;97053.69;;;5.27;98.11
22580;BME280;11456;47.030;15.396;2023-02-24T01:06:27;97052.81;;;5.17;97.89
22580;BME280;11456;47.030;15.396;2023-02-24T01:08:56;97054.59;;;5.07;97.55
22580;BME280;11456;47.030;15.396;2023-02-24T01:11:24;97044.09;;;4.84;98.15
22580;BME280;11456;47.030;15.396;2023-02-24T01:14:11;97043.56;;;4.91;98.29
22580;BME280;11456;47.030;15.396;2023-02-24T01:16:39;97044.44;;;5.01;98.59
22580;BME280;11456;47.030;15.396;2023-02-24T01:19:10;97040.91;;;4.91;97.90
22580;BME280;11456;47.030;15.396;2023-02-24T01:21:39;97041.88;;;4.90;98.56
22580;BME280;11456;47.030;15.396;2023-02-24T01:24:06;97030.13;;;5.02;98.96
22580;BME280;11456;47.030;15.396;2023-02-24T01:26:33;97028.88;;;5.06;98.80
22580;BME280;11456;47.030;15.396;2023-02-24T01:29:00;97027.28;;;4.94;98.61
22580;BME280;11456;47.030;15.396;2023-02-24T01:31:26;97031.19;;;4.90;98.85
22580;BME280;11456;47.030;15.396;2023-02-24T01:33:54;97023.91;;;4.92;99.03
22580;BME280;11456;47.030;15.396;2023-02-24T01:36:22;97017.44;;;4.94;99.00
22580;BME280;11456;47.030;15.396;2023-02-24T01:38:49;97018.59;;;5.01;99.16
22580;BME280;11456;47.030;15.396;2023-02-24T01:41:16;97018.47;;;4.72;100.00
22580;BME280;11456;47.030;15.396;2023-02-24T01:46:38;97005.63;;;4.87;99.95
22580;BME280;11456;47.030;15.396;2023-02-24T01:49:07;97010.84;;;4.68;99.62
22580;BME280;11456;47.030;15.396;2023-02-24T01:51:43;97012.94;;;4.85;99.57
22580;BME280;11456;47.030;15.396;2023-02-24T01:54:11;96997.84;;;5.05;98.31
22580;BME280;11456;47.030;15.396;2023-02-24T01:56:39;96997.50;;;4.89;98.66
22580;BME280;11456;47.030;15.396;2023-02-24T01:59:06;97004.84;;;5.06;99.18
22580;BME280;11456;47.030;15.396;2023-02-24T02:01:37;97005.50;;;4.89;99.43
22580;BME280;11456;47.030;15.396;2023-02-24T02:04:15;96997.28;;;4.80;98.77
22580;BME280;11456;47.030;15.396;2023-02-24T02:06:45;96994.81;;;4.58;99.23
22580;BME280;11456;47.030;15.396;2023-02-24T02:09:14;96996.16;;;4.73;99.57
22580;BME280;11456;47.030;15.396;2023-02-24T02:11:41;96998.19;;;4.60;99.55
22580;BME280;11456;47.030;15.396;2023-02-24T02:14:08;97001.84;;;4.59;99.79
22580;BME280;11456;47.030;15.396;2023-02-24T02:16:59;96999.16;;;4.59;100.00
22580;BME280;11456;47.030;15.396;2023-02-24T02:22:05;97002.72;;;4.69;100.00
22580;BME280;11456;47.030;15.396;2023-02-24T02:37:43;97013.16;;;4.72;100.00
22580;BME280;11456;47.030;15.396;2023-02-24T02:40:16;97010.09;;;4.87;100.00
22580;BME280;11456;47.030;15.396;2023-02-24T02:42:59;96996.25;;;4.93;100.00
22580;BME280;11456;47.030;15.396;2023-02-24T02:45:28;96989.13;;;5.03;100.00
22580;BME280;11456;47.030;15.396;2023-02-24T02:50:44;96993.84;;;4.90;100.00
22580;BME280;11456;47.030;15.396;2023-02-24T02:53:17;96994.09;;;4.87;100.00
22580;BME280;11456;47.030;15.396;2023-02-24T02:55:51;96999.81;;;4.72;100.00
22580;BME280;11456;47.030;15.396;2023-02-24T02:58:21;96997.16;;;4.82;100.00
22580;BME280;11456;47.030;15.396;2023-02-24T03:00:52;96998.13;;;4.71;100.00
22580;BME280;11456;47.030;15.396;2023-02-24T03:03:29;96985.91;;;4.99;100.00
22580;BME280;11456;47.030;15.396;2023-02-24T03:06:09;96989.66;;;4.97;100.00
22580;BME280;11456;47.030;15.396;2023-02-24T03:08:38;96987.97;;;4.96;100.00
22580;BME280;11456;47.030;15.396;2023-02-24T03:11:06;96988.59;;;5.09;100.00
22580;BME280;11456;47.030;15.396;2023-02-24T03:13:37;96986.34;;;5.04;100.00
22580;BME280;11456;47.030;15.396;2023-02-24T03:16:06;96990.81;;;5.04;100.00
22580;BME280;11456;47.030;15.396;2023-02-24T03:18:35;96987.31;;;5.03;100.00
22580;BME280;11456;47.030;15.396;2023-02-24T03:21:15;96990.81;;;5.04;100.00
22580;BME280;11456;47.030;15.396;2023-02-24T03:23:43;96989.97;;;5.03;100.00
22580;BME280;11456;47.030;15.396;2023-02-24T03:26:14;96995.09;;;5.16;100.00
22580;BME280;11456;47.030;15.396;2023-02-24T03:31:25;96984.50;;;5.05;100.00
22580;BME280;11456;47.030;15.396;2023-02-24T03:34:00;96980.47;;;5.10;100.00
22580;BME280;11456;47.030;15.396;2023-02-24T03:36:29;96983.31;;;5.28;100.00
22580;BME280;11456;47.030;15.396;2023-02-24T03:38:56;96971.84;;;5.37;100.00
22580;BME280;11456;47.030;15.396;2023-02-24T03:41:25;96974.34;;;5.29;100.00
22580;BME280;11456;47.030;15.396;2023-02-24T03:43:55;96976.88;;;5.40;100.00
22580;BME280;11456;47.030;15.396;2023-02-24T03:46:24;96966.63;;;5.45;100.00
22580;BME280;11456;47.030;15.396;2023-02-24T03:48:54;96970.16;;;5.46;100.00
22580;BME280;11456;47.030;15.396;2023-02-24T03:51:23;96975.63;;;5.44;100.00
22580;BME280;11456;47.030;15.396;2023-02-24T03:53:55;96961.28;;;5.45;100.00
22580;BME280;11456;47.030;15.396;2023-02-24T03:56:36;96966.50;;;5.37;100.00
22580;BME280;11456;47.030;15.396;2023-02-24T04:04:41;96965.72;;;5.25;100.00
22580;BME280;11456;47.030;15.396;2023-02-24T04:07:24;96969.50;;;5.13;100.00
22580;BME280;11456;47.030;15.396;2023-02-24T04:12:26;96962.78;;;5.19;100.00
22580;BME280;11456;47.030;15.396;2023-02-24T04:15:10;96963.06;;;5.16;100.00
22580;BME280;11456;47.030;15.396;2023-02-24T04:17:46;96969.38;;;5.15;100.00
22580;BME280;11456;47.030;15.396;2023-02-24T04:20:15;96958.53;;;5.07;100.00
22580;BME280;11456;47.030;15.396;2023-02-24T04:22:55;96955.47;;;5.21;100.00
22580;BME280;11456;47.030;15.396;2023-02-24T04:25:25;96952.94;;;5.19;100.00
22580;BME280;11456;47.030;15.396;2023-02-24T04:27:54;96944.53;;;5.24;100.00
22580;BME280;11456;47.030;15.396;2023-02-24T04:30:24;96954.38;;;5.33;100.00
22580;BME280;11456;47.030;15.396;2023-02-24T04:32:52;96942.31;;;5.29;100.00
22580;BME280;11456;47.030;15.396;2023-02-24T04:35:19;96947.94;;;5.36;100.00
22580;BME280;11456;47.030;15.396;2023-02-24T04:37:49;96946.19;;;5.25;100.00
22580;BME280;11456;47.030;15.396;2023-02-24T04:40:16;96950.69;;;5.15;100.00
22580;BME280;11456;47.030;15.396;2023-02-24T04:42:44;96948.31;;;5.12;100.00
22580;BME280;11456;47.030;15.396;2023-02-24T04:45:18;96944.19;;;5.08;100.00
22580;BME280;11456;47.030;15.396;2023-02-24T04:47:45;96946.97;;;4.97;100.00
22580;BME280;11456;47.030;15.396;2023-02-24T04:50:14;96941.63;;;4.97;100.00
22580;BME280;11456;47.030;15.396;2023-02-24T04:52:54;96931.81;;;5.07;100.00
22580;BME280;11456;47.030;15.396;2023-02-24T04:55:23;96932.44;;;5.20;100.00
22580;BME280;11456;47.030;15.396;2023-02-24T04:57:53;96922.59;;;5.11;100.00
22580;BME280;11456;47.030;15.396;2023-02-24T05:00:20;96916.97;;;5.14;100.00
22580;BME280;11456;47.030;15.396;2023-02-24T05:02:48;96917.22;;;5.01;100.00
22580;BME280;11456;47.030;15.396;2023-02-24T05:05:16;96918.91;;;5.02;100.00
22580;BME280;11456;47.030;15.396;2023-02-24T05:07:43;96923.50;;;4.91;100.00
22580;BME280;11456;47.030;15.396;2023-02-24T05:10:13;96924.00;;;4.75;100.00
22580;BME280;11456;47.030;15.396;2023-02-24T05:12:41;96922.38;;;4.53;100.00
22580;BME280;11456;47.030;15.396;2023-02-24T05:15:07;96919.94;;;4.80;100.00
22580;BME280;11456;47.030;15.396;2023-02-24T05:17:34;96911.28;;;4.88;100.00
22580;BME280;11456;47.030;15.396;2023-02-24T05:20:01;96914.31;;;4.74;100.00
22580;BME280;11456;47.030;15.396;2023-02-24T05:22:49;96905.91;;;4.78;100.00
22580;BME280;11456;47.030;15.396;2023-02-24T05:25:18;96907.00;;;4.66;100.00
22580;BME280;11456;47.030;15.396;2023-02-24T05:27:45;96902.44;;;4.57;100.00
22580;BME280;11456;47.030;15.396;2023-02-24T05:30:12;96900.41;;;4.70;100.00
22580;BME280;11456;47.030;15.396;2023-02-24T05:32:39;96899.38;;;4.62;100.00
22580;BME280;11456;47.030;15.396;2023-02-24T05:35:06;96889.84;;;4.59;100.00
22580;BME280;11456;47.030;15.396;2023-02-24T05:37:36;96885.72;;;4.55;100.00
22580;BME280;11456;47.030;15.396;2023-02-24T05:40:02;96890.16;;;4.75;100.00
22580;BME280;11456;47.030;15.396;2023-02-24T05:42:29;96896.22;;;4.77;100.00
22580;BME280;11456;47.030;15.396;2023-02-24T05:45:00;96893.25;;;4.71;100.00
22580;BME280;11456;47.030;15.396;2023-02-24T05:47:27;96892.06;;;4.54;100.00
22580;BME280;11456;47.030;15.396;2023-02-24T05:49:54;96887.59;;;4.64;100.00
22580;BME280;11456;47.030;15.396;2023-02-24T05:52:22;96895.19;;;4.59;100.00
22580;BME280;11456;47.030;15.396;2023-02-24T05:54:48;96890.16;;;4.75;100.00
22580;BME280;11456;47.030;15.396;2023-02-24T05:57:16;96886.03;;;4.92;100.00
22580;BME280;11456;47.030;15.396;2023-02-24T05:59:49;96879.00;;;4.91;100.00
22580;BME280;11456;47.030;15.396;2023-02-24T06:02:16;96880.34;;;4.66;100.00
22580;BME280;11456;47.030;15.396;2023-02-24T06:04:52;96874.72;;;4.69;100.00
22580;BME280;11456;47.030;15.396;2023-02-24T06:07:23;96886.69;;;4.44;100.00
22580;BME280;11456;47.030;15.396;2023-02-24T06:09:56;96885.13;;;4.42;100.00
22580;BME280;11456;47.030;15.396;2023-02-24T06:12:26;96881.84;;;4.29;100.00
22580;BME280;11456;47.030;15.396;2023-02-24T06:14:53;96881.03;;;4.38;100.00
22580;BME280;11456;47.030;15.396;2023-02-24T06:17:20;96886.66;;;4.35;100.00
22580;BME280;11456;47.030;15.396;2023-02-24T06:19:48;96883.50;;;4.30;100.00
22580;BME280;11456;47.030;15.396;2023-02-24T06:22:16;96890.22;;;4.24;100.00
22580;BME280;11456;47.030;15.396;2023-02-24T06:24:44;96894.66;;;4.14;100.00
22580;BME280;11456;47.030;15.396;2023-02-24T06:27:11;96889.47;;;4.13;100.00
22580;BME280;11456;47.030;15.396;2023-02-24T06:29:43;96890.94;;;4.26;100.00
22580;BME280;11456;47.030;15.396;2023-02-24T06:32:10;96889.25;;;4.56;100.00
22580;BME280;11456;47.030;15.396;2023-02-24T06:34:38;96887.63;;;4.34;100.00
22580;BME280;11456;47.030;15.396;2023-02-24T06:37:05;96887.44;;;4.26;100.00
22580;BME280;11456;47.030;15.396;2023-02-24T06:39:32;96887.44;;;4.26;100.00
22580;BME280;11456;47.030;15.396;2023-02-24T06:42:02;96884.13;;;4.43;100.00
22580;BME280;11456;47.030;15.396;2023-02-24T06:44:30;96885.00;;;4.43;100.00
22580;BME280;11456;47.030;15.396;2023-02-24T06:46:58;96883.50;;;4.30;100.00
22580;BME280;11456;47.030;15.396;2023-02-24T06:49:24;96886.44;;;4.57;100.00
22580;BME280;11456;47.030;15.396;2023-02-24T06:51:52;96880.59;;;4.63;100.00
22580;BME280;11456;47.030;15.396;2023-02-24T06:54:20;96877.19;;;4.61;100.00
22580;BME280;11456;47.030;15.396;2023-02-24T06:56:53;96890.16;;;4.75;100.00
22580;BME280;11456;47.030;15.396;2023-02-24T06:59:20;96875.66;;;4.99;100.00
22580;BME280;11456;47.030;15.396;2023-02-24T07:01:54;96876.19;;;4.93;100.00
22580;BME280;11456;47.030;15.396;2023-02-24T07:04:21;96885.44;;;4.89;100.00
22580;BME280;11456;47.030;15.396;2023-02-24T07:06:54;96879.34;;;5.17;100.00
22580;BME280;11456;47.030;15.396;2023-02-24T07:09:23;96886.19;;;5.10;100.00
22580;BME280;11456;47.030;15.396;2023-02-24T07:11:50;96874.28;;;5.23;100.00
22580;BME280;11456;47.030;15.396;2023-02-24T07:14:18;96872.88;;;5.29;100.00
22580;BME280;11456;47.030;15.396;2023-02-24T07:16:46;96873.59;;;5.31;100.00
22580;BME280;11456;47.030;15.396;2023-02-24T07:19:16;96862.78;;;5.42;100.00
22580;BME280;11456;47.030;15.396;2023-02-24T07:21:43;96862.78;;;5.61;99.71
22580;BME280;11456;47.030;15.396;2023-02-24T07:24:16;96869.34;;;5.19;100.00
22580;BME280;11456;47.030;15.396;2023-02-24T07:26:56;96872.19;;;5.27;100.00
22580;BME280;11456;47.030;15.396;2023-02-24T07:29:24;96862.22;;;5.29;100.00
22580;BME280;11456;47.030;15.396;2023-02-24T07:31:51;96875.44;;;5.40;100.00
22580;BME280;11456;47.030;15.396;2023-02-24T07:34:22;96863.63;;;5.91;100.00
22580;BME280;11456;47.030;15.396;2023-02-24T07:36:50;96869.34;;;6.25;99.86
22580;BME280;11456;47.030;15.396;2023-02-24T07:39:17;96866.94;;;6.31;98.27
22580;BME280;11456;47.030;15.396;2023-02-24T07:41:44;96866.09;;;6.21;98.68
22580;BME280;11456;47.030;15.396;2023-02-24T07:44:15;96856.44;;;6.48;96.88
22580;BME280;11456;47.030;15.396;2023-02-24T07:46:42;96852.00;;;6.38;95.14
22580;BME280;11456;47.030;15.396;2023-02-24T07:49:10;96849.81;;;6.79;95.75
22580;BME280;11456;47.030;15.396;2023-02-24T07:51:37;96843.38;;;6.99;94.51
22580;BME280;11456;47.030;15.396;2023-02-24T07:54:03;96835.34;;;8.05;93.56
22580;BME280;11456;47.030;15.396;2023-02-24T07:56:30;96841.16;;;8.19;90.00
22580;BME280;11456;47.030;15.396;2023-02-24T07:59:07;96826.00;;;9.11;87.22
22580;BME280;11456;47.030;15.396;2023-02-24T08:01:36;96825.63;;;9.97;82.63
22580;BME280;11456;47.030;15.396;2023-02-24T08:04:06;96818.81;;;10.58;78.87
22580;BME280;11456;47.030;15.396;2023-02-24T08:06:34;96824.09;;;10.43;77.65
22580;BME280;11456;47.030;15.396;2023-02-24T08:09:05;96818.38;;;10.93;76.06
22580;BME280;11456;47.030;15.396;2023-02-24T08:11:48;96814.63;;;11.02;76.02
22580;BME280;11456;47.030;15.396;2023-02-24T08:14:18;96816.13;;;10.58;75.88
22580;BME280;11456;47.030;15.396;2023-02-24T08:16:46;96796.06;;;11.61;74.66
22580;BME280;11456;47.030;15.396;2023-02-24T08:19:14;96794.47;;;11.75;73.26
22580;BME280;11456;47.030;15.396;2023-02-24T08:21:46;96789.16;;;11.89;68.04
22580;BME280;11456;47.030;15.396;2023-02-24T08:24:19;96797.56;;;10.79;73.01
22580;BME280;11456;47.030;15.396;2023-02-24T08:26:52;96794.34;;;11.14;70.53
22580;BME280;11456;47.030;15.396;2023-02-24T08:29:31;96788.50;;;10.72;71.37
22580;BME280;11456;47.030;15.396;2023-02-24T08:32:06;96788.78;;;10.85;72.54
22580;BME280;11456;47.030;15.396;2023-02-24T08:34:35;96791.72;;;11.06;71.47
22580;BME280;11456;47.030;15.396;2023-02-24T08:37:01;96780.09;;;12.20;70.90
22580;BME280;11456;47.030;15.396;2023-02-24T08:39:28;96772.47;;;12.38;67.41
22580;BME280;11456;47.030;15.396;2023-02-24T08:41:56;96773.28;;;11.41;69.76
22580;BME280;11456;47.030;15.396;2023-02-24T08:44:23;96768.56;;;12.26;68.77
22580;BME280;11456;47.030;15.396;2023-02-24T08:46:52;96772.13;;;12.03;64.86
22580;BME280;11456;47.030;15.396;2023-02-24T08:49:20;96764.66;;;11.68;66.15
22580;BME280;11456;47.030;15.396;2023-02-24T08:51:50;96758.53;;;11.29;68.94
22580;BME280;11456;47.030;15.396;2023-02-24T08:54:22;96763.28;;;10.96;69.78
22580;BME280;11456;47.030;15.396;2023-02-24T08:56:58;96761.69;;;11.63;68.36
22580;BME280;11456;47.030;15.396;2023-02-24T08:59:34;96761.34;;;12.03;67.39
22580;BME280;11456;47.030;15.396;2023-02-24T09:02:11;96764.84;;;12.56;64.65
22580;BME280;11456;47.030;15.396;2023-02-24T09:04:45;96756.75;;;12.27;64.81
22580;BME280;11456;47.030;15.396;2023-02-24T09:07:15;96759.25;;;11.91;66.48
22580;BME280;11456;47.030;15.396;2023-02-24T09:09:42;96751.59;;;11.34;67.24
22580;BME280;11456;47.030;15.396;2023-02-24T09:12:10;96748.09;;;11.56;67.71
22580;BME280;11456;47.030;15.396;2023-02-24T09:14:48;96739.84;;;12.98;61.21
22580;BME280;11456;47.030;15.396;2023-02-24T09:17:15;96736.25;;;13.27;59.79
22580;BME280;11456;47.030;15.396;2023-02-24T09:19:47;96734.84;;;13.52;58.42
22580;BME280;11456;47.030;15.396;2023-02-24T09:22:18;96732.03;;;13.82;56.91
22580;BME280;11456;47.030;15.396;2023-02-24T09:27:48;96726.16;;;14.62;55.14
22580;BME280;11456;47.030;15.396;2023-02-24T09:30:24;96725.75;;;14.09;54.67
22580;BME280;11456;47.030;15.396;2023-02-24T09:33:09;96724.34;;;13.85;51.11
22580;BME280;11456;47.030;15.396;2023-02-24T09:35:44;96724.97;;;14.15;51.08
22580;BME280;11456;47.030;15.396;2023-02-24T09:38:16;96720.53;;;14.35;51.13
22580;BME280;11456;47.030;15.396;2023-02-24T09:40:43;96724.59;;;14.18;52.27
22580;BME280;11456;47.030;15.396;2023-02-24T09:43:26;96722.91;;;13.89;53.69
22580;BME280;11456;47.030;15.396;2023-02-24T09:45:58;96722.75;;;13.97;53.75
22580;BME280;11456;47.030;15.396;2023-02-24T09:48:30;96714.19;;;14.22;51.95
22580;BME280;11456;47.030;15.396;2023-02-24T09:50:58;96704.66;;;15.01;50.50
22580;BME280;11456;47.030;15.396;2023-02-24T09:53:32;96708.91;;;15.37;49.03
22580;BME280;11456;47.030;15.396;2023-02-24T10:06:18;96700.81;;;16.68;46.85
22580;BME280;11456;47.030;15.396;2023-02-24T10:08:51;96696.25;;;16.36;45.23
22580;BME280;11456;47.030;15.396;2023-02-24T10:11:20;96694.00;;;15.67;47.70
22580;BME280;11456;47.030;15.396;2023-02-24T10:14:02;96683.97;;;15.81;45.75
22580;BME280;11456;47.030;15.396;2023-02-24T10:16:31;96683.53;;;15.64;46.15
22580;BME280;11456;47.030;15.396;2023-02-24T10:19:10;96683.13;;;16.07;44.48
22580;BME280;11456;47.030;15.396;2023-02-24T10:24:41;96679.59;;;15.86;44.47
22580;BME280;11456;47.030;15.396;2023-02-24T10:30:02;96676.34;;;16.62;44.16
22580;BME280;11456;47.030;15.396;2023-02-24T10:32:53;96666.94;;;16.58;43.51
22580;BME280;11456;47.030;15.396;2023-02-24T10:35:25;96659.59;;;16.58;43.36
22580;BME280;11456;47.030;15.396;2023-02-24T10:37:59;96668.94;;;15.91;43.94
22580;BME280;11456;47.030;15.396;2023-02-24T10:40:42;96651.13;;;15.36;46.03
22580;BME280;11456;47.030;15.396;2023-02-24T10:43:13;96652.44;;;15.73;44.80
22580;BME280;11456;47.030;15.396;2023-02-24T10:45:43;96643.78;;;15.30;46.29
22580;BME280;11456;47.030;15.396;2023-02-24T10:48:22;96638.31;;;14.97;47.33
22580;BME280;11456;47.030;15.396;2023-02-24T10:51:10;96639.34;;;14.96;47.58
22580;BME280;11456;47.030;15.396;2023-02-24T10:53:47;96625.34;;;14.86;47.70
22580;BME280;11456;47.030;15.396;2023-02-24T10:56:33;96619.97;;;14.99;47.96
22580;BME280;11456;47.030;15.396;2023-02-24T10:59:11;96619.59;;;15.22;48.35
22580;BME280;11456;47.030;15.396;2023-02-24T11:01:52;96609.22;;;15.65;47.19
22580;BME280;11456;47.030;15.396;2023-02-24T11:04:31;96599.00;;;15.67;47.60
22580;BME280;11456;47.030;15.396;2023-02-24T11:07:04;96605.41;;;15.27;46.72
22580;BME280;11456;47.030;15.396;2023-02-24T11:09:38;96588.66;;;16.15;45.49
22580;BME280;11456;47.030;15.396;2023-02-24T11:12:19;96585.25;;;16.33;45.21
22580;BME280;11456;47.030;15.396;2023-02-24T11:15:21;96586.63;;;15.84;45.29
22580;BME280;11456;47.030;15.396;2023-02-24T11:18:16;96580.75;;;16.00;43.86
22580;BME280;11456;47.030;15.396;2023-02-24T11:20:45;96575.63;;;15.53;45.13
22580;BME280;11456;47.030;15.396;2023-02-24T11:23:16;96580.38;;;15.84;43.49
22580;BME280;11456;47.030;15.396;2023-02-24T11:25:48;96565.22;;;16.21;43.16
22580;BME280;11456;47.030;15.396;2023-02-24T11:28:23;96563.06;;;16.49;42.66
22580;BME280;11456;47.030;15.396;2023-02-24T11:30:54;96552.38;;;15.96;43.15
22580;BME280;11456;47.030;15.396;2023-02-24T11:39:14;96535.31;;;16.34;42.09
22580;BME280;11456;47.030;15.396;2023-02-24T11:41:22;96529.44;;;16.81;42.46
22580;BME280;11456;47.030;15.396;2023-02-24T11:44:02;96524.06;;;17.99;40.52
22580;BME280;11456;47.030;15.396;2023-02-24T11:46:38;96515.59;;;18.25;39.62
22580;BME280;11456;47.030;15.396;2023-02-24T11:49:11;96514.38;;;17.85;39.63
22580;BME280;11456;47.030;15.396;2023-02-24T11:51:43;96513.50;;;17.41;40.61
22580;BME280;11456;47.030;15.396;2023-02-24T11:54:10;96496.69;;;17.26;40.63
22580;BME280;11456;47.030;15.396;2023-02-24T11:56:39;96494.19;;;17.00;41.56
22580;BME280;11456;47.030;15.396;2023-02-24T12:02:04;96486.69;;;17.20;40.50
22580;BME280;11456;47.030;15.396;2023-02-24T12:04:37;96487.75;;;16.56;41.42
22580;BME280;11456;47.030;15.396;2023-02-24T12:07:06;96470.66;;;16.49;41.55
22580;BME280;11456;47.030;15.396;2023-02-24T12:09:40;96473.78;;;16.01;41.69
22580;BME280;11456;47.030;15.396;2023-02-24T12:12:16;96463.31;;;16.12;41.98
22580;BME280;11456;47.030;15.396;2023-02-24T12:14:45;96470.59;;;16.62;41.14
22580;BME280;11456;47.030;15.396;2023-02-24T12:19:59;96455.56;;;16.53;40.61
22580;BME280;11456;47.030;15.396;2023-02-24T12:22:39;96452.13;;;15.88;42.12
22580;BME280;11456;47.030;15.396;2023-02-24T12:25:10;96446.72;;;15.82;42.67
22580;BME280;11456;47.030;15.396;2023-02-24T12:30:28;96430.91;;;15.72;42.14
22580;BME280;11456;47.030;15.396;2023-02-24T12:38:14;96422.16;;;15.57;44.90
22580;BME280;11456;47.030;15.396;2023-02-24T12:40:46;96410.53;;;15.30;44.89
22580;BME280;11456;47.030;15.396;2023-02-24T12:49:12;96398.25;;;15.92;42.86
22580;BME280;11456;47.030;15.396;2023-02-24T12:52:23;96391.88;;;16.11;42.78
22580;BME280;11456;47.030;15.396;2023-02-24T12:57:10;96388.50;;;16.78;41.06
22580;BME280;11456;47.030;15.396;2023-02-24T12:59:39;96380.38;;;16.97;40.13
22580;BME280;11456;47.030;15.396;2023-02-24T13:10:17;96355.03;;;17.94;37.90
22580;BME280;11456;47.030;15.396;2023-02-24T13:12:54;96354.47;;;18.33;37.58
22580;BME280;11456;47.030;15.396;2023-02-24T13:15:25;96357.16;;;17.92;36.04
22580;BME280;11456;47.030;15.396;2023-02-24T13:17:53;96355.03;;;17.94;36.83
22580;BME280;11456;47.030;15.396;2023-02-24T13:20:24;96357.81;;;18.35;35.88
22580;BME280;11456;47.030;15.396;2023-02-24T13:22:51;96347.28;;;18.51;35.62
22580;BME280;11456;47.030;15.396;2023-02-24T13:25:20;96345.44;;;18.63;35.86
22580;BME280;11456;47.030;15.396;2023-02-24T13:27:57;96331.00;;;19.20;35.56
22580;BME280;11456;47.030;15.396;2023-02-24T13:30:26;96334.78;;;18.73;35.50
22580;BME280;11456;47.030;15.396;2023-02-24T13:33:37;96326.13;;;19.22;35.23
22580;BME280;11456;47.030;15.396;2023-02-24T13:35:44;96315.84;;;19.13;33.96
22580;BME280;11456;47.030;15.396;2023-02-24T13:40:46;96315.72;;;19.19;34.55
22580;BME280;11456;47.030;15.396;2023-02-24T13:43:21;96311.88;;;19.20;35.60
22580;BME280;11456;47.030;15.396;2023-02-24T13:45:52;96305.00;;;19.30;35.46
22580;BME280;11456;47.030;15.396;2023-02-24T13:58:47;96299.41;;;19.36;31.53
22580;BME280;11456;47.030;15.396;2023-02-24T14:01:18;96289.50;;;19.70;31.48
22580;BME280;11456;47.030;15.396;2023-02-24T14:04:01;96299.72;;;20.03;30.40
22580;BME280;11456;47.030;15.396;2023-02-24T14:06:28;96292.47;;;19.05;33.13
22580;BME280;11456;47.030;15.396;2023-02-24T14:08:56;96293.66;;;18.86;32.70
22580;BME280;11456;47.030;15.396;2023-02-24T14:11:27;96287.13;;;18.75;32.46
22580;BME280;11456;47.030;15.396;2023-02-24T14:13:54;96288.72;;;19.58;30.87
22580;BME280;11456;47.030;15.396;2023-02-24T14:16:37;96286.06;;;19.00;31.67
22580;BME280;11456;47.030;15.396;2023-02-24T14:19:14;96275.59;;;19.08;31.91
22580;BME280;11456;47.030;15.396;2023-02-24T14:21:49;96272.28;;;19.70;31.12
22580;BME280;11456;47.030;15.396;2023-02-24T14:24:16;96261.97;;;18.85;32.53
22580;BME280;11456;47.030;15.396;2023-02-24T14:26:49;96271.91;;;19.14;31.67
22580;BME280;11456;47.030;15.396;2023-02-24T14:29:17;96261.41;;;19.58;31.13
22580;BME280;11456;47.030;15.396;2023-02-24T14:31:46;96252.50;;;18.76;34.01
22580;BME280;11456;47.030;15.396;2023-02-24T14:34:15;96261.50;;;18.00;33.93
22580;BME280;11456;47.030;15.396;2023-02-24T14:36:43;96266.28;;;18.16;34.32
22580;BME280;11456;47.030;15.396;2023-02-24T14:39:22;96262.53;;;18.40;33.37
22580;BME280;11456;47.030;15.396;2023-02-24T14:41:50;96262.50;;;18.17;34.09
22580;BME280;11456;47.030;15.396;2023-02-24T14:46:44;96239.09;;;18.86;31.92
22580;BME280;11456;47.030;15.396;2023-02-24T14:49:15;96242.59;;;18.28;32.82
22580;BME280;11456;47.030;15.396;2023-02-24T14:51:42;96239.63;;;17.47;33.89
22580;BME280;11456;47.030;15.396;2023-02-24T14:54:10;96238.50;;;17.96;33.50
22580;BME280;11456;47.030;15.396;2023-02-24T14:56:43;96226.59;;;17.49;34.51